Time;durP1;ratioP1;P1;durP2;ratioP2;P2;SDS_P1;SDS_P2;PMS_P1;PMS_P2;Temp;Humidity;BMP_temperature;BMP_pressure;BME280_temperature;BME280_humidity;BME280_pressure;Samples;Min_cycle;Max_cycle;Signal;HPM_P1;HPM_P2
2022/03/01 00:00:35;;;;;;;12.45;4.60;;;-1.70;99.90;;;;;;5054875;28;20033;-62
2022/03/01 00:03:01;;;;;;;11.02;4.60;;;-3.20;99.90;;;;;;5055540;28;20025;-62
2022/03/01 00:05:27;;;;;;;17.20;4.90;;;-3.20;99.90;;;;;;5055037;28;20528;-62
2022/03/01 00:07:52;;;;;;;12.10;4.90;;;-3.20;99.90;;;;;;5053172;28;20084;-62
2022/03/01 00:10:18;;;;;;;13.02;4.65;;;-2.00;99.90;;;;;;5055181;28;20040;-62
2022/03/01 00:12:44;;;;;;;8.43;3.90;;;-2.20;99.90;;;;;;5053633;28;20031;-62
2022/03/01 00:15:10;;;;;;;9.80;3.38;;;-3.30;99.90;;;;;;5054861;28;20516;-62
2022/03/01 00:17:36;;;;;;;11.27;4.70;;;-3.30;99.90;;;;;;5053544;28;20380;-62
2022/03/01 00:20:03;;;;;;;10.02;3.90;;;-1.20;99.90;;;;;;5054771;28;20029;-62
2022/03/01 00:22:28;;;;;;;12.13;4.10;;;-3.30;99.90;;;;;;5054819;28;20021;-62
2022/03/01 00:24:54;;;;;;;11.55;4.28;;;-3.30;99.90;;;;;;5054468;28;20518;-62
2022/03/01 00:27:20;;;;;;;12.35;4.15;;;-3.40;99.90;;;;;;5054874;28;20033;-62
2022/03/01 00:29:46;;;;;;;11.65;4.57;;;-2.10;99.90;;;;;;5054735;28;20118;-62
2022/03/01 00:32:11;;;;;;;10.63;3.92;;;-2.20;99.90;;;;;;5054519;28;20029;-62
2022/03/01 00:34:37;;;;;;;8.55;4.07;;;-1.60;99.90;;;;;;5053392;28;20024;-62
2022/03/01 00:37:03;;;;;;;9.48;3.80;;;-2.80;99.90;;;;;;5054490;28;20056;-62
2022/03/01 00:39:29;;;;;;;10.88;4.65;;;-3.50;99.90;;;;;;5054418;28;20108;-62
2022/03/01 00:41:55;;;;;;;10.52;4.95;;;-1.20;99.90;;;;;;5054313;28;20056;-62
2022/03/01 00:44:20;;;;;;;10.68;4.70;;;-3.20;99.90;;;;;;5054832;28;20029;-62
2022/03/01 00:46:46;;;;;;;15.23;5.68;;;-3.50;99.90;;;;;;5054371;28;20021;-62
2022/03/01 00:49:12;;;;;;;12.25;4.90;;;-3.50;99.90;;;;;;5053898;28;20122;-62
2022/03/01 00:51:38;;;;;;;13.93;5.30;;;-3.50;99.90;;;;;;5052899;28;20362;-63
2022/03/01 00:54:03;;;;;;;11.80;5.38;;;-1.50;99.90;;;;;;5054129;28;20033;-62
2022/03/01 00:56:30;;;;;;;10.57;4.72;;;-3.50;99.90;;;;;;5054064;28;20028;-62
2022/03/01 00:58:56;;;;;;;17.73;5.43;;;-3.60;99.90;;;;;;5054114;28;20020;-62
2022/03/01 01:01:22;;;;;;;11.60;5.30;;;-3.60;99.90;;;;;;5052784;28;20021;-62
2022/03/01 01:03:48;;;;;;;13.90;4.90;;;-1.30;99.90;;;;;;5053988;28;20029;-62
2022/03/01 01:06:14;;;;;;;8.63;4.40;;;-3.60;99.90;;;;;;5053587;28;20040;-62
2022/03/01 01:08:40;;;;;;;10.82;5.35;;;-3.70;99.90;;;;;;5054079;28;20044;-62
2022/03/01 01:11:06;;;;;;;10.63;5.05;;;-1.30;99.90;;;;;;5053061;28;20465;-62
2022/03/01 01:13:31;;;;;;;13.25;5.25;;;-2.70;99.90;;;;;;5053227;28;20029;-62
2022/03/01 01:15:57;;;;;;;12.95;4.90;;;-3.70;99.90;;;;;;5053856;28;20523;-62
2022/03/01 01:18:23;;;;;;;9.60;4.80;;;-3.70;99.90;;;;;;5053074;28;20029;-62
2022/03/01 01:20:48;;;;;;;9.77;4.45;;;-3.20;99.90;;;;;;5054062;28;20474;-62
2022/03/01 01:23:14;;;;;;;9.57;4.22;;;-3.70;99.90;;;;;;5053849;28;20473;-62
2022/03/01 01:25:40;;;;;;;9.63;4.25;;;-3.20;99.90;;;;;;5053842;28;20111;-62
2022/03/01 01:28:06;;;;;;;11.88;4.80;;;-3.80;99.90;;;;;;5052309;28;20032;-62
2022/03/01 01:30:34;;;;;;;11.63;4.97;;;-3.80;99.90;;;;;;5052453;28;20029;-62
2022/03/01 01:33:00;;;;;;;15.65;4.80;;;-1.30;99.90;;;;;;5052496;28;20036;-62
2022/03/01 01:35:27;;;;;;;8.75;4.78;;;-1.40;99.90;;;;;;5052362;28;20392;-62
2022/03/01 01:37:54;;;;;;;9.23;4.45;;;-3.90;99.90;;;;;;5052301;28;20052;-62
2022/03/01 01:40:23;;;;;;;15.00;4.88;;;-2.40;99.90;;;;;;5053911;28;20107;-62
2022/03/01 01:42:49;;;;;;;13.45;4.85;;;-2.90;99.90;;;;;;5053818;28;20107;-62
2022/03/01 01:45:15;;;;;;;12.88;4.78;;;-3.50;99.90;;;;;;5053547;28;20025;-62
2022/03/01 01:47:41;;;;;;;12.98;4.90;;;-4.00;99.90;;;;;;5053219;28;20465;-62
2022/03/01 01:50:08;;;;;;;13.85;4.95;;;-3.20;99.90;;;;;;5053480;28;20025;-62
2022/03/01 01:52:34;;;;;;;10.27;4.78;;;-4.00;99.90;;;;;;5053584;28;20087;-62
2022/03/01 01:54:59;;;;;;;11.27;4.57;;;-2.70;99.90;;;;;;5052022;28;20025;-63
2022/03/01 01:57:25;;;;;;;13.63;4.75;;;-4.10;99.90;;;;;;5053744;28;20056;-63
2022/03/01 01:59:53;;;;;;;8.10;4.40;;;-4.10;99.90;;;;;;5053660;28;20048;-62
2022/03/01 02:02:21;;;;;;;10.07;4.40;;;-4.10;99.90;;;;;;5053412;28;20021;-62
2022/03/01 02:04:46;;;;;;;12.00;4.72;;;-3.80;99.90;;;;;;5053640;28;20031;-62
2022/03/01 02:07:13;;;;;;;19.65;5.15;;;-3.60;99.90;;;;;;5052018;28;20041;-62
2022/03/01 02:09:38;;;;;;;12.43;4.55;;;-4.10;99.90;;;;;;5053607;28;20178;-62
2022/03/01 02:12:05;;;;;;;15.20;5.10;;;-4.10;99.90;;;;;;5053307;28;20472;-62
2022/03/01 02:14:32;;;;;;;10.30;4.30;;;-4.10;99.90;;;;;;5053270;28;20030;-62
2022/03/01 02:16:59;;;;;;;12.63;4.43;;;-2.20;99.90;;;;;;5053273;28;20537;-62
2022/03/01 02:19:25;;;;;;;11.88;4.88;;;-2.50;99.90;;;;;;5053245;28;20040;-62
2022/03/01 02:21:55;;;;;;;10.05;4.22;;;-2.40;99.90;;;;;;5053651;28;20033;-62
2022/03/01 02:24:22;;;;;;;9.30;3.92;;;-4.10;99.90;;;;;;5056969;28;20083;-62
2022/03/01 02:26:48;;;;;;;16.17;4.45;;;-4.20;99.90;;;;;;5057198;28;20028;-62
2022/03/01 02:29:14;;;;;;;10.30;4.35;;;-4.20;99.90;;;;;;5056758;28;20055;-62
2022/03/01 02:31:40;;;;;;;11.32;4.60;;;-4.30;99.90;;;;;;5056819;28;20516;-62
2022/03/01 02:34:06;;;;;;;10.40;4.43;;;-2.10;99.90;;;;;;5056763;28;20028;-62
2022/03/01 02:36:31;;;;;;;12.35;4.43;;;-4.40;99.90;;;;;;5056440;28;20051;-62
2022/03/01 02:38:57;;;;;;;9.88;3.78;;;-3.10;99.90;;;;;;5056411;28;20362;-62
2022/03/01 02:41:25;;;;;;;10.70;5.07;;;-4.40;99.90;;;;;;5056672;28;20025;-62
2022/03/01 02:44:10;;;;;;;11.13;4.18;;;-4.40;99.90;;;;;;5056589;28;20017;-62
2022/03/01 02:46:36;;;;;;;12.88;4.97;;;-4.20;99.90;;;;;;5055436;28;20025;-62
2022/03/01 02:49:03;;;;;;;11.18;4.75;;;-4.40;99.90;;;;;;5056428;28;20116;-62
2022/03/01 02:51:29;;;;;;;22.08;5.88;;;-4.50;99.90;;;;;;5056512;28;20380;-62
2022/03/01 02:53:55;;;;;;;14.55;4.90;;;-4.50;99.90;;;;;;5056574;28;20128;-63
2022/03/01 02:56:21;;;;;;;10.25;4.50;;;-2.30;99.90;;;;;;5056622;28;20372;-62
2022/03/01 02:58:47;;;;;;;11.30;4.60;;;-4.00;99.90;;;;;;5056292;28;20025;-62
2022/03/01 03:01:13;;;;;;;14.43;4.43;;;-4.40;99.90;;;;;;5055184;28;20028;-62
2022/03/01 03:03:38;;;;;;;11.85;4.95;;;-4.50;99.90;;;;;;5056264;28;20381;-62
2022/03/01 03:06:04;;;;;;;6.22;4.15;;;-4.50;99.90;;;;;;5055751;28;20053;-62
2022/03/01 03:08:31;;;;;;;9.65;4.30;;;-2.40;99.90;;;;;;5056106;28;20024;-62
2022/03/01 03:10:57;;;;;;;9.18;4.28;;;-4.50;99.90;;;;;;5054810;28;20029;-62
2022/03/01 03:13:24;;;;;;;11.75;4.68;;;-4.50;99.90;;;;;;5055534;28;20025;-62
2022/03/01 03:15:49;;;;;;;8.10;4.10;;;-2.40;99.90;;;;;;5054396;28;20025;-62
2022/03/01 03:18:15;;;;;;;10.55;4.60;;;-2.60;99.90;;;;;;5055635;28;20035;-62
2022/03/01 03:20:41;;;;;;;10.90;4.20;;;-4.60;99.90;;;;;;5054597;28;20055;-62
2022/03/01 03:23:07;;;;;;;11.85;4.65;;;-4.60;99.90;;;;;;5055891;28;20029;-62
2022/03/01 03:25:33;;;;;;;13.05;4.70;;;-4.70;99.90;;;;;;5054500;28;20024;-62
2022/03/01 03:27:59;;;;;;;10.73;4.75;;;-4.70;99.90;;;;;;5054591;28;20124;-62
2022/03/01 03:30:25;;;;;;;13.57;4.63;;;-4.70;99.90;;;;;;5054473;28;20389;-62
2022/03/01 03:32:50;;;;;;;16.10;5.20;;;-4.70;99.90;;;;;;5056138;28;20135;-62
2022/03/01 03:35:16;;;;;;;7.75;4.65;;;-4.80;99.90;;;;;;5055096;28;20512;-62
2022/03/01 03:37:42;;;;;;;8.32;4.28;;;-4.70;99.90;;;;;;5055588;28;20021;-62
2022/03/01 03:40:08;;;;;;;11.52;4.63;;;-4.80;99.90;;;;;;5055206;28;20032;-62
2022/03/01 03:42:34;;;;;;;8.15;3.92;;;-4.80;99.90;;;;;;5055333;28;20465;-62
2022/03/01 03:44:59;;;;;;;9.90;4.50;;;-4.80;99.90;;;;;;5055435;28;20036;-62
2022/03/01 03:47:25;;;;;;;10.57;4.80;;;-2.30;99.90;;;;;;5055647;28;20040;-62
2022/03/01 03:49:51;;;;;;;8.70;4.03;;;-4.90;99.90;;;;;;5054969;28;20041;-62
2022/03/01 03:52:16;;;;;;;8.98;3.53;;;-4.90;99.90;;;;;;5054162;28;20384;-62
2022/03/01 03:54:42;;;;;;;12.18;4.10;;;-4.90;99.90;;;;;;5055253;28;20056;-62
2022/03/01 03:57:08;;;;;;;10.80;4.45;;;-4.10;99.90;;;;;;5055235;28;20025;-62
2022/03/01 03:59:35;;;;;;;10.90;4.68;;;-4.90;99.90;;;;;;5055198;28;20024;-62
2022/03/01 04:02:05;;;;;;;8.63;4.50;;;-5.00;99.90;;;;;;5055208;28;20029;-62
2022/03/01 04:04:31;;;;;;;9.10;4.85;;;-5.00;99.90;;;;;;5055170;28;20061;-62
2022/03/01 04:06:57;;;;;;;12.55;5.00;;;-5.00;99.90;;;;;;5055365;28;20534;-63
2022/03/01 04:09:23;;;;;;;7.85;4.82;;;-5.10;99.90;;;;;;5054927;28;20475;-62
2022/03/01 04:11:49;;;;;;;8.52;4.10;;;-5.10;99.90;;;;;;5055073;28;20033;-62
2022/03/01 04:14:14;;;;;;;11.63;4.72;;;-3.40;99.90;;;;;;5053327;28;20025;-62
2022/03/01 04:16:42;;;;;;;12.77;4.13;;;-5.20;99.90;;;;;;5053629;28;20025;-62
2022/03/01 04:19:09;;;;;;;8.73;4.43;;;-5.20;99.90;;;;;;5054843;28;20025;-62
2022/03/01 04:21:35;;;;;;;11.27;4.80;;;-5.20;99.90;;;;;;5053189;28;20029;-62
2022/03/01 04:24:00;;;;;;;9.48;4.78;;;-5.20;99.90;;;;;;5054702;28;20082;-62
2022/03/01 04:26:26;;;;;;;9.70;4.32;;;-5.20;99.90;;;;;;5054912;28;20032;-62
2022/03/01 04:28:52;;;;;;;13.85;4.85;;;-5.20;99.90;;;;;;5053215;28;20032;-62
2022/03/01 04:31:17;;;;;;;12.38;4.05;;;-5.20;99.90;;;;;;5054608;28;20040;-62
2022/03/01 04:33:43;;;;;;;10.85;4.15;;;-5.20;99.90;;;;;;5054412;28;20109;-62
2022/03/01 04:36:09;;;;;;;10.55;4.53;;;-5.20;99.90;;;;;;5054462;28;20052;-62
2022/03/01 04:38:35;;;;;;;11.45;4.55;;;-5.20;99.90;;;;;;5054395;28;20112;-62
2022/03/01 04:41:01;;;;;;;10.45;4.47;;;-5.20;99.90;;;;;;5053338;28;20037;-62
2022/03/01 04:43:27;;;;;;;8.70;4.53;;;-5.20;99.90;;;;;;5054308;28;20047;-62
2022/03/01 04:45:52;;;;;;;8.70;4.72;;;-4.10;99.90;;;;;;5053751;28;20519;-62
2022/03/01 04:48:18;;;;;;;12.52;5.07;;;-2.90;99.90;;;;;;5054187;28;20085;-62
2022/03/01 04:50:44;;;;;;;8.32;4.45;;;-5.10;99.90;;;;;;5054260;28;20469;-62
2022/03/01 04:53:11;;;;;;;11.73;4.32;;;-5.10;99.90;;;;;;5053899;28;20094;-62
2022/03/01 04:55:37;;;;;;;10.88;4.47;;;-5.10;99.90;;;;;;5052907;28;20120;-62
2022/03/01 04:58:03;;;;;;;7.30;4.57;;;-5.10;99.90;;;;;;5053802;28;20484;-62
2022/03/01 05:00:28;;;;;;;10.02;4.28;;;-3.20;99.90;;;;;;5054204;28;20021;-62
2022/03/01 05:02:54;;;;;;;7.95;4.72;;;-5.10;99.90;;;;;;5054035;28;20357;-62
2022/03/01 05:05:20;;;;;;;8.45;4.35;;;-3.70;99.90;;;;;;5052710;28;20060;-61
2022/03/01 05:07:47;;;;;;;16.80;5.60;;;-3.00;99.90;;;;;;5053663;28;20045;-62
2022/03/01 05:10:17;;;;;;;11.68;4.95;;;-5.20;99.90;;;;;;5053908;28;20504;-62
2022/03/01 05:12:44;;;;;;;13.65;5.60;;;-5.10;99.90;;;;;;5053881;28;20564;-62
2022/03/01 05:15:10;;;;;;;11.70;5.15;;;-3.10;99.90;;;;;;5053898;28;20494;-62
2022/03/01 05:17:36;;;;;;;16.13;4.82;;;-5.20;99.90;;;;;;5053800;28;20052;-62
2022/03/01 05:20:03;;;;;;;9.82;4.63;;;-5.20;99.90;;;;;;5054061;28;20086;-62
2022/03/01 05:22:28;;;;;;;9.35;5.07;;;-5.20;99.90;;;;;;5053762;28;20474;-62
2022/03/01 05:24:54;;;;;;;10.43;5.43;;;-5.30;99.90;;;;;;5053417;28;20029;-61
2022/03/01 05:27:20;;;;;;;11.57;4.78;;;-3.20;99.90;;;;;;5052494;28;20025;-62
2022/03/01 05:29:45;;;;;;;7.68;3.97;;;-5.30;99.90;;;;;;5053820;28;20056;-64
2022/03/01 05:32:11;;;;;;;11.38;5.68;;;-5.30;99.90;;;;;;5052492;28;20075;-62
2022/03/01 05:34:37;;;;;;;10.95;4.88;;;-5.20;99.90;;;;;;5052072;28;20429;-62
2022/03/01 05:37:03;;;;;;;16.98;5.53;;;-5.20;99.90;;;;;;5053875;28;20033;-62
2022/03/01 05:39:29;;;;;;;12.07;4.88;;;-5.20;99.90;;;;;;5054030;28;20419;-62
2022/03/01 05:41:54;;;;;;;10.55;4.97;;;-5.20;99.90;;;;;;5053557;28;20025;-62
2022/03/01 05:44:20;;;;;;;11.90;5.35;;;-3.60;99.90;;;;;;5053552;28;20021;-61
2022/03/01 05:46:47;;;;;;;11.50;5.53;;;-5.20;99.90;;;;;;5053804;28;20030;-62
2022/03/01 05:49:12;;;;;;;13.57;6.22;;;-5.10;99.90;;;;;;5053590;28;20032;-62
2022/03/01 05:51:38;;;;;;;14.02;5.22;;;-5.10;99.90;;;;;;5052505;28;20434;-62
2022/03/01 05:54:04;;;;;;;11.85;4.60;;;-5.10;99.90;;;;;;5053717;28;20021;-62
2022/03/01 05:56:30;;;;;;;14.50;5.43;;;-5.10;99.90;;;;;;5053395;28;20025;-62
2022/03/01 05:58:56;;;;;;;16.23;5.57;;;-5.10;99.90;;;;;;5056132;28;20102;-61
2022/03/01 06:01:22;;;;;;;8.93;4.35;;;-3.00;99.90;;;;;;5057523;28;20033;-62
2022/03/01 06:03:47;;;;;;;13.63;5.93;;;-4.20;99.90;;;;;;5057094;28;20021;-61
2022/03/01 06:06:13;;;;;;;14.63;5.82;;;-5.10;99.90;;;;;;5055895;28;20128;-62
2022/03/01 06:08:39;;;;;;;12.55;4.68;;;-5.00;99.90;;;;;;5057310;28;20029;-62
2022/03/01 06:11:04;;;;;;;12.35;5.00;;;-5.10;99.90;;;;;;5057544;28;20037;-62
2022/03/01 06:13:30;;;;;;;10.68;5.47;;;-5.00;99.90;;;;;;5055803;28;20384;-62
2022/03/01 06:15:58;;;;;;;14.15;6.72;;;-4.60;99.90;;;;;;5057390;28;20028;-67
2022/03/01 06:18:24;;;;;;;10.60;5.28;;;-2.80;99.90;;;;;;5057674;28;20029;-62
2022/03/01 06:20:49;;;;;;;12.07;5.47;;;-5.00;99.90;;;;;;5057912;28;20056;-64
2022/03/01 06:23:15;;;;;;;13.25;5.97;;;-4.90;99.90;;;;;;5057117;28;20025;-62
2022/03/01 06:25:43;;;;;;;9.98;4.97;;;-4.90;99.90;;;;;;5055868;28;20098;-61
2022/03/01 06:28:09;;;;;;;11.75;4.93;;;-3.30;99.90;;;;;;5056993;28;20466;-62
2022/03/01 06:30:36;;;;;;;12.23;5.47;;;-4.80;99.90;;;;;;5056879;28;20033;-61
2022/03/01 06:33:02;;;;;;;13.30;5.47;;;-4.80;99.90;;;;;;5057076;28;20029;-62
2022/03/01 06:35:28;;;;;;;17.85;5.78;;;-4.80;99.90;;;;;;5056740;28;20040;-63
2022/03/01 06:37:53;;;;;;;13.80;6.50;;;-2.50;99.90;;;;;;5056987;28;20412;-62
2022/03/01 06:40:19;;;;;;;19.50;5.93;;;-4.60;99.90;;;;;;5056566;28;20036;-62
2022/03/01 06:42:47;;;;;;;14.55;6.18;;;-4.20;99.90;;;;;;5055389;28;20025;-62
2022/03/01 06:45:12;;;;;;;16.73;5.90;;;-4.20;99.90;;;;;;5056569;28;20032;-62
2022/03/01 06:47:38;;;;;;;15.90;5.35;;;-2.20;99.90;;;;;;5056712;28;20104;-66
2022/03/01 06:50:05;;;;;;;10.90;5.50;;;-2.80;99.90;;;;;;5055211;28;20032;-62
2022/03/01 06:52:32;;;;;;;13.35;6.38;;;-3.60;99.90;;;;;;5056356;28;20139;-62
2022/03/01 06:54:58;;;;;;;14.45;5.65;;;-3.40;99.90;;;;;;5056346;28;20060;-62
2022/03/01 06:57:23;;;;;;;18.77;6.90;;;-3.20;99.90;;;;;;5054666;28;20061;-62
2022/03/01 06:59:53;;;;;;;12.98;5.20;;;-3.00;99.90;;;;;;5056592;28;20039;-62
2022/03/01 07:02:18;;;;;;;16.33;6.90;;;-2.70;99.90;;;;;;5055076;28;20029;-62
2022/03/01 07:04:44;;;;;;;12.70;6.05;;;-0.60;99.90;;;;;;5055911;28;20029;-62
2022/03/01 07:07:10;;;;;;;14.45;6.95;;;-2.30;99.90;;;;;;5054796;28;20141;-62
2022/03/01 07:09:35;;;;;;;16.35;7.32;;;-2.10;99.90;;;;;;5055226;28;20066;-62
2022/03/01 07:12:01;;;;;;;14.43;6.72;;;-1.80;99.90;;;;;;5054936;28;20029;-62
2022/03/01 07:14:27;;;;;;;18.20;7.32;;;-1.60;99.90;;;;;;5055200;28;20032;-62
2022/03/01 07:16:52;;;;;;;17.35;6.22;;;-1.40;99.90;;;;;;5054979;28;20053;-62
2022/03/01 07:19:18;;;;;;;16.45;6.07;;;-1.20;99.90;;;;;;5054733;28;20033;-62
2022/03/01 07:21:44;;;;;;;12.30;5.20;;;-1.10;99.90;;;;;;5055017;28;20111;-62
2022/03/01 07:24:09;;;;;;;21.98;6.63;;;-1.10;99.90;;;;;;5055890;28;20056;-62
2022/03/01 07:26:35;;;;;;;15.57;5.97;;;-1.00;99.90;;;;;;5055810;28;20032;-62
2022/03/01 07:29:01;;;;;;;14.52;6.40;;;-0.80;99.90;;;;;;5054476;28;20044;-62
2022/03/01 07:31:26;;;;;;;15.13;6.20;;;-0.50;99.90;;;;;;5055465;28;20465;-62
2022/03/01 07:33:52;;;;;;;13.27;5.88;;;-0.30;99.90;;;;;;5055742;28;20032;-62
2022/03/01 07:36:18;;;;;;;13.90;6.03;;;1.10;99.90;;;;;;5054187;28;20055;-62
2022/03/01 07:38:43;;;;;;;12.32;5.68;;;1.90;99.90;;;;;;5054257;28;20055;-62
2022/03/01 07:41:09;;;;;;;14.43;5.53;;;0.40;99.90;;;;;;5055789;28;20037;-62
2022/03/01 07:43:35;;;;;;;12.20;5.53;;;0.60;99.90;;;;;;5054338;28;20033;-63
2022/03/01 07:46:00;;;;;;;11.18;5.82;;;0.90;99.90;;;;;;5055437;28;20051;-62
2022/03/01 07:48:26;;;;;;;13.30;6.10;;;1.20;99.90;;;;;;5055449;28;20024;-62
2022/03/01 07:50:52;;;;;;;11.20;5.72;;;1.50;99.90;;;;;;5055559;28;20036;-66
2022/03/01 07:53:17;;;;;;;10.10;5.50;;;1.60;99.90;;;;;;5055368;28;20063;-66
2022/03/01 07:55:43;;;;;;;12.43;6.03;;;1.80;99.90;;;;;;5054106;28;20033;-63
2022/03/01 07:58:09;;;;;;;11.45;6.32;;;2.20;99.90;;;;;;5054268;28;20111;-62
2022/03/01 08:00:34;;;;;;;12.82;6.28;;;2.40;99.90;;;;;;5055083;28;20025;-62
2022/03/01 08:03:00;;;;;;;10.90;5.90;;;2.70;99.90;;;;;;5055139;28;20079;-62
2022/03/01 08:05:26;;;;;;;12.50;6.57;;;2.90;99.90;;;;;;5053670;28;20071;-63
2022/03/01 08:07:52;;;;;;;14.55;6.57;;;3.10;99.90;;;;;;5055367;28;20049;-63
2022/03/01 08:10:18;;;;;;;16.15;6.72;;;3.10;99.90;;;;;;5055163;28;20457;-63
2022/03/01 08:12:44;;;;;;;15.35;6.55;;;3.40;99.90;;;;;;5054176;28;20365;-62
2022/03/01 08:15:10;;;;;;;12.93;5.80;;;3.70;99.10;;;;;;5054973;28;20115;-63
2022/03/01 08:17:36;;;;;;;11.45;5.88;;;3.80;98.40;;;;;;5053552;28;20074;-62
2022/03/01 08:20:03;;;;;;;13.15;6.90;;;4.10;98.10;;;;;;5054644;28;20036;-62
2022/03/01 08:22:28;;;;;;;13.32;6.72;;;4.20;97.20;;;;;;5053442;28;20050;-62
2022/03/01 08:24:54;;;;;;;13.68;6.45;;;4.30;97.00;;;;;;5054287;28;20021;-63
2022/03/01 08:27:19;;;;;;;16.40;7.00;;;4.60;97.30;;;;;;5055201;28;20025;-62
2022/03/01 08:29:45;;;;;;;12.43;6.35;;;5.20;95.80;;;;;;5053751;28;20028;-62
2022/03/01 08:32:11;;;;;;;14.93;6.57;;;5.60;92.90;;;;;;5053770;28;20485;-62
2022/03/01 08:34:36;;;;;;;12.43;7.22;;;5.50;92.50;;;;;;5054857;28;20029;-62
2022/03/01 08:37:02;;;;;;;13.02;6.75;;;5.30;93.10;;;;;;5053239;28;20047;-62
2022/03/01 08:39:28;;;;;;;12.82;6.93;;;5.40;93.20;;;;;;5053163;28;20366;-62
2022/03/01 08:41:55;;;;;;;11.40;6.63;;;5.20;92.90;;;;;;5054358;28;20060;-62
2022/03/01 08:44:20;;;;;;;14.45;7.28;;;5.40;93.40;;;;;;5053075;28;20032;-62
2022/03/01 08:46:46;;;;;;;15.23;6.72;;;5.70;91.40;;;;;;5054415;28;20029;-62
2022/03/01 08:49:12;;;;;;;14.20;7.57;;;5.70;91.40;;;;;;5054193;28;20033;-62
2022/03/01 08:51:37;;;;;;;14.55;6.75;;;6.00;90.60;;;;;;5054281;28;20457;-62
2022/03/01 08:54:03;;;;;;;13.73;6.95;;;6.20;89.10;;;;;;5054481;28;20021;-62
2022/03/01 08:56:29;;;;;;;14.65;7.70;;;6.50;85.90;;;;;;5052955;28;20020;-62
2022/03/01 08:58:55;;;;;;;18.83;7.97;;;6.90;81.80;;;;;;5052899;28;20385;-62
2022/03/01 09:01:21;;;;;;;16.73;7.72;;;7.20;77.20;;;;;;5054382;28;20116;-62
2022/03/01 09:03:47;;;;;;;18.85;8.00;;;7.40;73.20;;;;;;5054033;28;20053;-62
2022/03/01 09:06:13;;;;;;;13.82;7.18;;;7.20;72.60;;;;;;5053857;28;20111;-62
2022/03/01 09:08:40;;;;;;;11.43;7.15;;;7.00;73.10;;;;;;5054030;28;20033;-62
2022/03/01 09:11:07;;;;;;;12.98;7.85;;;6.90;73.90;;;;;;5053968;28;20082;-62
2022/03/01 09:13:33;;;;;;;12.95;7.35;;;6.70;75.50;;;;;;5053980;28;20061;-62
2022/03/01 09:15:59;;;;;;;12.23;7.95;;;6.60;76.90;;;;;;5053881;28;20087;-62
2022/03/01 09:18:24;;;;;;;12.38;6.57;;;6.80;74.80;;;;;;5054081;28;20017;-62
2022/03/01 09:20:50;;;;;;;16.23;7.05;;;6.80;74.90;;;;;;5053987;28;20029;-63
2022/03/01 09:23:16;;;;;;;11.95;6.82;;;7.10;75.80;;;;;;5052555;28;20025;-64
2022/03/01 09:25:42;;;;;;;12.35;7.50;;;7.60;70.70;;;;;;5053862;28;20055;-62
2022/03/01 09:28:08;;;;;;;12.30;6.93;;;7.60;67.10;;;;;;5052496;28;20021;-62
2022/03/01 09:30:34;;;;;;;14.15;7.15;;;7.70;67.30;;;;;;5052582;28;20067;-62
2022/03/01 09:33:00;;;;;;;13.38;7.75;;;8.30;63.80;;;;;;5052928;28;20032;-62
2022/03/01 09:35:27;;;;;;;11.45;6.95;;;8.60;60.40;;;;;;5053967;28;20476;-63
2022/03/01 09:37:53;;;;;;;12.05;7.40;;;8.60;59.70;;;;;;5053829;28;20025;-62
2022/03/01 09:40:18;;;;;;;14.55;6.90;;;8.30;61.00;;;;;;5054176;28;20420;-62
2022/03/01 09:42:45;;;;;;;13.88;7.70;;;8.30;60.10;;;;;;5053772;28;20021;-63
2022/03/01 09:45:12;;;;;;;12.73;7.55;;;8.30;60.70;;;;;;5053844;28;20104;-62
2022/03/01 09:47:38;;;;;;;12.93;6.05;;;8.10;61.30;;;;;;5052574;28;20036;-62
2022/03/01 09:50:07;;;;;;;10.65;6.60;;;8.40;58.10;;;;;;5053810;28;20029;-62
2022/03/01 09:52:33;;;;;;;11.43;6.20;;;9.10;55.70;;;;;;5052172;28;20431;-62
2022/03/01 09:54:59;;;;;;;10.00;6.30;;;9.00;54.60;;;;;;5052313;28;20460;-62
2022/03/01 09:57:24;;;;;;;11.55;5.88;;;8.80;54.90;;;;;;5053188;28;20029;-63
2022/03/01 09:59:50;;;;;;;10.07;5.95;;;9.00;55.00;;;;;;5053305;28;20108;-62
2022/03/01 10:02:16;;;;;;;11.65;6.40;;;9.60;51.90;;;;;;5053434;28;20025;-62
2022/03/01 10:04:55;;;;;;;9.23;5.65;;;9.70;50.30;;;;;;5053418;28;20037;-62
2022/03/01 10:07:27;;;;;;;10.13;6.18;;;9.40;51.00;;;;;;5051680;28;20080;-62
2022/03/01 10:09:53;;;;;;;11.85;6.88;;;10.10;50.10;;;;;;5052873;28;20042;-63
2022/03/01 10:12:28;;;;;;;12.27;5.97;;;9.80;48.40;;;;;;5052181;28;20033;-63
2022/03/01 10:15:02;;;;;;;11.98;6.45;;;9.60;49.10;;;;;;5053474;28;20025;-63
2022/03/01 10:17:44;;;;;;;10.63;6.10;;;9.50;51.10;;;;;;5052152;28;20029;-63
2022/03/01 10:20:12;;;;;;;14.95;7.32;;;9.40;50.30;;;;;;5052588;28;20031;-64
2022/03/01 10:22:44;;;;;;;12.32;6.85;;;8.30;52.60;;;;;;5052007;28;20108;-62
2022/03/01 10:25:12;;;;;;;14.20;6.78;;;7.90;55.60;;;;;;5052416;28;20381;-62
2022/03/01 10:27:38;;;;;;;11.95;7.45;;;7.70;55.90;;;;;;5051950;28;20021;-62
2022/03/01 10:30:05;;;;;;;12.23;7.38;;;7.90;55.60;;;;;;5053092;28;20039;-62
2022/03/01 10:32:32;;;;;;;10.48;7.53;;;8.10;56.10;;;;;;5053104;28;20431;-62
2022/03/01 10:34:58;;;;;;;13.45;7.45;;;8.00;56.50;;;;;;5052239;28;20033;-62
2022/03/01 10:37:29;;;;;;;13.13;7.47;;;8.20;56.40;;;;;;5053394;28;20084;-62
2022/03/01 10:40:20;;;;;;;12.52;7.07;;;8.40;55.50;;;;;;5053131;28;20036;-62
2022/03/01 10:43:11;;;;;;;12.27;6.93;;;8.70;55.30;;;;;;5052080;28;20029;-62
2022/03/01 10:45:46;;;;;;;10.20;6.43;;;9.80;52.40;;;;;;5056125;28;20021;-62
2022/03/01 10:48:29;;;;;;;11.35;6.47;;;10.80;48.60;;;;;;5056040;28;20384;-62
2022/03/01 10:51:00;;;;;;;11.50;6.53;;;11.10;46.90;;;;;;5055855;28;20029;-63
2022/03/01 10:53:57;;;;;;;9.85;6.43;;;11.60;45.60;;;;;;5056489;28;20494;-62
2022/03/01 10:56:34;;;;;;;9.95;6.15;;;11.70;43.80;;;;;;5052077;28;20040;-62
2022/03/01 10:59:01;;;;;;;10.55;6.80;;;11.30;44.20;;;;;;5055049;28;20473;-62
2022/03/01 11:01:27;;;;;;;10.55;7.55;;;11.50;43.50;;;;;;5056386;28;20029;-62
2022/03/01 11:03:53;;;;;;;16.23;7.20;;;11.90;42.90;;;;;;5056280;28;20028;-63
2022/03/01 11:06:19;;;;;;;11.18;7.40;;;12.20;42.70;;;;;;5054677;28;20069;-62
2022/03/01 11:09:05;;;;;;;12.63;7.80;;;12.60;42.40;;;;;;5056059;28;20151;-63
2022/03/01 11:11:32;;;;;;;14.48;7.72;;;12.80;41.70;;;;;;5055504;28;20392;-63
2022/03/01 11:13:58;;;;;;;12.95;7.82;;;11.70;42.40;;;;;;5056172;28;20028;-62
2022/03/01 11:16:42;;;;;;;16.70;7.80;;;11.60;43.50;;;;;;5054894;28;20029;-62
2022/03/01 11:19:34;;;;;;;11.85;7.32;;;10.90;44.70;;;;;;5055422;28;20063;-62
2022/03/01 11:22:00;;;;;;;14.52;7.70;;;11.80;42.80;;;;;;5054972;28;20454;-62
2022/03/01 11:24:26;;;;;;;14.57;7.28;;;12.60;42.10;;;;;;5055679;28;20103;-63
2022/03/01 11:26:52;;;;;;;15.02;7.70;;;12.50;41.70;;;;;;5056148;28;20108;-63
2022/03/01 11:29:18;;;;;;;13.85;7.50;;;12.50;41.80;;;;;;5055833;28;20152;-63
2022/03/01 11:31:57;;;;;;;12.13;7.55;;;12.50;41.00;;;;;;5056351;28;20029;-63
2022/03/01 11:34:23;;;;;;;;;;;12.60;41.50;;;;;;5054970;28;20074;-62
2022/03/01 11:36:56;;;;;;;15.15;7.70;;;12.70;40.20;;;;;;5055832;28;19991;-62
2022/03/01 11:39:31;;;;;;;14.38;7.63;;;11.90;40.90;;;;;;5055914;28;20041;-62
2022/03/01 11:42:07;;;;;;;12.40;8.75;;;12.30;41.00;;;;;;5055784;28;20104;-63
2022/03/01 11:44:35;;;;;;;13.43;7.90;;;12.00;41.40;;;;;;5054217;28;20029;-63
2022/03/01 11:47:09;;;;;;;11.77;7.57;;;12.30;41.60;;;;;;5054217;28;20036;-63
2022/03/01 11:49:38;;;;;;;13.75;8.75;;;12.60;40.60;;;;;;5055744;28;20025;-62
2022/03/01 11:52:15;;;;;;;15.45;8.52;;;13.20;40.40;;;;;;5055521;28;20116;-63
2022/03/01 11:54:43;;;;;;;12.80;8.02;;;13.00;39.50;;;;;;5054138;28;20132;-63
2022/03/01 11:57:10;;;;;;;14.32;8.70;;;12.90;40.10;;;;;;5055301;28;20029;-62
2022/03/01 11:59:39;;;;;;;14.48;9.35;;;13.40;39.90;;;;;;5054018;28;20055;-63
2022/03/01 12:02:09;;;;;;;15.73;8.65;;;13.80;38.00;;;;;;5055029;28;20021;-62
2022/03/01 12:04:46;;;;;;;15.52;8.57;;;13.30;38.90;;;;;;5055136;28;20025;-63
2022/03/01 12:07:19;;;;;;;11.73;8.48;;;13.50;38.80;;;;;;5055509;28;20048;-62
2022/03/01 12:09:55;;;;;;;10.73;7.65;;;14.50;37.80;;;;;;5055085;28;20067;-63
2022/03/01 12:12:34;;;;;;;11.20;7.93;;;15.30;35.70;;;;;;5054249;28;20033;-63
2022/03/01 12:15:00;;;;;;;11.27;7.53;;;15.60;34.60;;;;;;5054910;28;20029;-63
2022/03/01 12:17:26;;;;;;;15.35;8.95;;;15.30;34.00;;;;;;5053599;28;20380;-62
2022/03/01 12:19:59;;;;;;;15.82;8.60;;;15.40;34.70;;;;;;5054726;28;20112;-62
2022/03/01 12:22:25;;;;;;;15.98;8.38;;;15.60;34.20;;;;;;5054774;28;20025;-63
2022/03/01 12:24:51;;;;;;;10.10;7.35;;;15.70;34.20;;;;;;5054324;28;20499;-63
2022/03/01 12:27:18;;;;;;;12.82;7.82;;;16.10;33.20;;;;;;5054788;28;20021;-63
2022/03/01 12:29:46;;;;;;;13.40;8.80;;;15.20;34.00;;;;;;5054098;28;20029;-63
2022/03/01 12:32:13;;;;;;;14.35;8.80;;;14.60;34.70;;;;;;5053207;28;20033;-63
2022/03/01 12:34:40;;;;;;;15.40;8.85;;;14.00;35.70;;;;;;5054775;28;20469;-63
2022/03/01 12:37:08;;;;;;;16.55;9.50;;;13.10;36.90;;;;;;5054366;28;20423;-63
2022/03/01 12:39:36;;;;;;;17.23;9.77;;;12.50;38.60;;;;;;5053230;28;20029;-62